sensor_id;sensor_type;location;lat;lon;timestamp;temperature;humidity
23377;DHT22;14353;46.070;13.222;2022-08-19T00:01:10;31.00;47.20
23377;DHT22;14353;46.070;13.222;2022-08-19T00:03:35;31.00;47.20
23377;DHT22;14353;46.070;13.222;2022-08-19T00:06:01;31.00;47.20
23377;DHT22;14353;46.070;13.222;2022-08-19T00:08:28;31.00;47.10
23377;DHT22;14353;46.070;13.222;2022-08-19T00:10:54;31.00;47.20
23377;DHT22;14353;46.070;13.222;2022-08-19T00:13:19;30.90;47.10
23377;DHT22;14353;46.070;13.222;2022-08-19T00:15:45;31.00;47.20
23377;DHT22;14353;46.070;13.222;2022-08-19T00:18:11;30.90;47.20
23377;DHT22;14353;46.070;13.222;2022-08-19T00:20:37;30.90;47.30
23377;DHT22;14353;46.070;13.222;2022-08-19T00:23:06;31.00;47.30
23377;DHT22;14353;46.070;13.222;2022-08-19T00:25:33;30.90;47.20
23377;DHT22;14353;46.070;13.222;2022-08-19T00:27:59;30.90;47.20
23377;DHT22;14353;46.070;13.222;2022-08-19T00:30:25;30.90;47.30
23377;DHT22;14353;46.070;13.222;2022-08-19T00:32:53;30.90;47.20
23377;DHT22;14353;46.070;13.222;2022-08-19T00:35:21;30.90;47.30
23377;DHT22;14353;46.070;13.222;2022-08-19T00:37:48;30.90;47.30
23377;DHT22;14353;46.070;13.222;2022-08-19T00:40:15;30.90;47.40
23377;DHT22;14353;46.070;13.222;2022-08-19T00:42:41;30.90;47.40
23377;DHT22;14353;46.070;13.222;2022-08-19T00:45:27;30.90;47.40
23377;DHT22;14353;46.070;13.222;2022-08-19T00:47:56;30.90;47.40
23377;DHT22;14353;46.070;13.222;2022-08-19T00:50:22;30.90;47.40
23377;DHT22;14353;46.070;13.222;2022-08-19T00:52:50;30.90;47.40
23377;DHT22;14353;46.070;13.222;2022-08-19T00:55:20;30.80;47.40
23377;DHT22;14353;46.070;13.222;2022-08-19T00:57:56;30.80;47.50
23377;DHT22;14353;46.070;13.222;2022-08-19T01:00:25;30.80;47.50
23377;DHT22;14353;46.070;13.222;2022-08-19T01:02:52;30.80;47.50
23377;DHT22;14353;46.070;13.222;2022-08-19T01:05:27;30.80;47.50
23377;DHT22;14353;46.070;13.222;2022-08-19T01:07:56;30.80;47.50
23377;DHT22;14353;46.070;13.222;2022-08-19T01:10:25;30.80;47.50
23377;DHT22;14353;46.070;13.222;2022-08-19T01:12:52;30.80;47.50
23377;DHT22;14353;46.070;13.222;2022-08-19T01:15:23;30.80;47.60
23377;DHT22;14353;46.070;13.222;2022-08-19T01:17:50;30.80;47.60
23377;DHT22;14353;46.070;13.222;2022-08-19T01:20:20;30.80;47.70
23377;DHT22;14353;46.070;13.222;2022-08-19T01:22:56;30.80;47.70
23377;DHT22;14353;46.070;13.222;2022-08-19T01:25:29;30.80;47.80
23377;DHT22;14353;46.070;13.222;2022-08-19T01:27:55;30.80;47.70
23377;DHT22;14353;46.070;13.222;2022-08-19T01:30:27;30.80;47.80
23377;DHT22;14353;46.070;13.222;2022-08-19T01:32:54;30.80;47.80
23377;DHT22;14353;46.070;13.222;2022-08-19T01:35:21;30.80;48.40
23377;DHT22;14353;46.070;13.222;2022-08-19T01:38:09;30.80;47.70
23377;DHT22;14353;46.070;13.222;2022-08-19T01:40:39;30.80;47.80
23377;DHT22;14353;46.070;13.222;2022-08-19T01:43:05;30.80;47.80
23377;DHT22;14353;46.070;13.222;2022-08-19T01:45:32;30.80;47.90
23377;DHT22;14353;46.070;13.222;2022-08-19T01:47:59;30.80;47.80
23377;DHT22;14353;46.070;13.222;2022-08-19T01:50:25;30.80;47.80
23377;DHT22;14353;46.070;13.222;2022-08-19T01:52:51;30.70;47.70
23377;DHT22;14353;46.070;13.222;2022-08-19T01:55:20;30.80;47.80
23377;DHT22;14353;46.070;13.222;2022-08-19T01:57:52;30.80;47.90
23377;DHT22;14353;46.070;13.222;2022-08-19T02:00:21;30.80;47.90
23377;DHT22;14353;46.070;13.222;2022-08-19T02:02:48;30.70;47.80
23377;DHT22;14353;46.070;13.222;2022-08-19T02:05:13;30.80;47.90
23377;DHT22;14353;46.070;13.222;2022-08-19T02:07:40;30.80;48.00
23377;DHT22;14353;46.070;13.222;2022-08-19T02:10:10;30.80;48.00
23377;DHT22;14353;46.070;13.222;2022-08-19T02:12:36;30.80;48.00
23377;DHT22;14353;46.070;13.222;2022-08-19T02:15:03;30.80;48.00
23377;DHT22;14353;46.070;13.222;2022-08-19T02:17:29;30.70;47.90
23377;DHT22;14353;46.070;13.222;2022-08-19T02:19:56;30.70;47.90
23377;DHT22;14353;46.070;13.222;2022-08-19T02:22:23;30.70;48.00
23377;DHT22;14353;46.070;13.222;2022-08-19T02:24:52;30.70;48.00
23377;DHT22;14353;46.070;13.222;2022-08-19T02:27:19;30.70;48.00
23377;DHT22;14353;46.070;13.222;2022-08-19T02:29:46;30.70;48.00
23377;DHT22;14353;46.070;13.222;2022-08-19T02:32:13;30.80;48.00
23377;DHT22;14353;46.070;13.222;2022-08-19T02:34:39;30.70;48.00
23377;DHT22;14353;46.070;13.222;2022-08-19T02:37:05;30.70;48.00
23377;DHT22;14353;46.070;13.222;2022-08-19T02:39:31;30.70;48.00
23377;DHT22;14353;46.070;13.222;2022-08-19T02:41:57;30.80;48.00
23377;DHT22;14353;46.070;13.222;2022-08-19T02:44:25;30.70;48.00
23377;DHT22;14353;46.070;13.222;2022-08-19T02:46:51;30.70;48.10
23377;DHT22;14353;46.070;13.222;2022-08-19T02:49:16;30.70;48.10
23377;DHT22;14353;46.070;13.222;2022-08-19T02:51:45;30.70;48.00
23377;DHT22;14353;46.070;13.222;2022-08-19T02:54:12;30.70;48.10
23377;DHT22;14353;46.070;13.222;2022-08-19T02:56:40;30.70;48.10
23377;DHT22;14353;46.070;13.222;2022-08-19T02:59:07;30.70;48.50
23377;DHT22;14353;46.070;13.222;2022-08-19T03:01:36;30.70;48.10
23377;DHT22;14353;46.070;13.222;2022-08-19T03:04:06;30.70;48.00
23377;DHT22;14353;46.070;13.222;2022-08-19T03:06:36;30.70;48.10
23377;DHT22;14353;46.070;13.222;2022-08-19T03:09:02;30.70;48.10
23377;DHT22;14353;46.070;13.222;2022-08-19T03:11:31;30.70;48.10
23377;DHT22;14353;46.070;13.222;2022-08-19T03:13:58;30.70;48.10
23377;DHT22;14353;46.070;13.222;2022-08-19T03:16:27;30.70;48.10
23377;DHT22;14353;46.070;13.222;2022-08-19T03:18:55;30.70;48.10
23377;DHT22;14353;46.070;13.222;2022-08-19T03:21:26;30.70;48.10
23377;DHT22;14353;46.070;13.222;2022-08-19T03:23:57;30.60;48.00
23377;DHT22;14353;46.070;13.222;2022-08-19T03:26:23;30.70;48.10
23377;DHT22;14353;46.070;13.222;2022-08-19T03:28:51;30.70;48.10
23377;DHT22;14353;46.070;13.222;2022-08-19T03:31:20;30.70;48.10
23377;DHT22;14353;46.070;13.222;2022-08-19T03:33:50;30.60;48.00
23377;DHT22;14353;46.070;13.222;2022-08-19T03:36:26;30.60;48.10
23377;DHT22;14353;46.070;13.222;2022-08-19T03:38:55;30.70;48.20
23377;DHT22;14353;46.070;13.222;2022-08-19T03:41:24;30.60;48.20
23377;DHT22;14353;46.070;13.222;2022-08-19T03:43:52;30.60;48.20
23377;DHT22;14353;46.070;13.222;2022-08-19T03:46:23;30.50;48.20
23377;DHT22;14353;46.070;13.222;2022-08-19T03:48:52;30.50;48.20
23377;DHT22;14353;46.070;13.222;2022-08-19T03:51:23;30.50;48.10
23377;DHT22;14353;46.070;13.222;2022-08-19T03:53:51;30.50;48.10
23377;DHT22;14353;46.070;13.222;2022-08-19T03:56:18;30.50;48.20
23377;DHT22;14353;46.070;13.222;2022-08-19T03:58:45;30.50;48.10
23377;DHT22;14353;46.070;13.222;2022-08-19T04:01:17;30.50;48.20
23377;DHT22;14353;46.070;13.222;2022-08-19T04:03:44;30.60;48.40
23377;DHT22;14353;46.070;13.222;2022-08-19T04:06:17;30.50;48.20
23377;DHT22;14353;46.070;13.222;2022-08-19T04:08:45;30.60;48.30
23377;DHT22;14353;46.070;13.222;2022-08-19T04:11:17;30.60;48.40
23377;DHT22;14353;46.070;13.222;2022-08-19T04:13:43;30.60;48.30
23377;DHT22;14353;46.070;13.222;2022-08-19T04:16:10;30.60;49.00
23377;DHT22;14353;46.070;13.222;2022-08-19T04:18:37;30.60;48.30
23377;DHT22;14353;46.070;13.222;2022-08-19T04:21:04;30.50;48.10
23377;DHT22;14353;46.070;13.222;2022-08-19T04:23:30;30.50;48.10
23377;DHT22;14353;46.070;13.222;2022-08-19T04:25:56;30.50;48.10
23377;DHT22;14353;46.070;13.222;2022-08-19T04:28:23;30.50;48.10
23377;DHT22;14353;46.070;13.222;2022-08-19T04:30:51;30.50;48.20
23377;DHT22;14353;46.070;13.222;2022-08-19T04:33:20;30.50;48.10
23377;DHT22;14353;46.070;13.222;2022-08-19T04:35:50;30.50;48.10
23377;DHT22;14353;46.070;13.222;2022-08-19T04:38:18;30.50;48.10
23377;DHT22;14353;46.070;13.222;2022-08-19T04:40:47;30.50;48.10
23377;DHT22;14353;46.070;13.222;2022-08-19T04:43:33;30.50;48.10
23377;DHT22;14353;46.070;13.222;2022-08-19T04:46:08;30.50;48.00
23377;DHT22;14353;46.070;13.222;2022-08-19T04:48:37;30.50;48.00
23377;DHT22;14353;46.070;13.222;2022-08-19T04:51:07;30.50;48.10
23377;DHT22;14353;46.070;13.222;2022-08-19T04:53:35;30.50;48.00
23377;DHT22;14353;46.070;13.222;2022-08-19T04:56:09;30.50;48.00
23377;DHT22;14353;46.070;13.222;2022-08-19T04:58:36;30.40;47.90
23377;DHT22;14353;46.070;13.222;2022-08-19T05:01:03;30.40;47.90
23377;DHT22;14353;46.070;13.222;2022-08-19T05:03:29;30.40;47.90
23377;DHT22;14353;46.070;13.222;2022-08-19T05:06:03;30.40;47.80
23377;DHT22;14353;46.070;13.222;2022-08-19T05:08:29;30.40;47.60
23377;DHT22;14353;46.070;13.222;2022-08-19T05:10:56;30.40;47.50
23377;DHT22;14353;46.070;13.222;2022-08-19T05:13:23;30.40;47.50
23377;DHT22;14353;46.070;13.222;2022-08-19T05:15:57;30.40;47.50
23377;DHT22;14353;46.070;13.222;2022-08-19T05:18:23;30.40;47.50
23377;DHT22;14353;46.070;13.222;2022-08-19T05:21:10;30.40;47.50
23377;DHT22;14353;46.070;13.222;2022-08-19T05:23:55;30.40;47.40
23377;DHT22;14353;46.070;13.222;2022-08-19T05:26:24;30.40;47.40
23377;DHT22;14353;46.070;13.222;2022-08-19T05:28:54;30.40;47.50
23377;DHT22;14353;46.070;13.222;2022-08-19T05:31:20;30.40;47.30
23377;DHT22;14353;46.070;13.222;2022-08-19T05:33:47;30.40;47.30
23377;DHT22;14353;46.070;13.222;2022-08-19T05:36:14;30.40;47.30
23377;DHT22;14353;46.070;13.222;2022-08-19T05:38:40;30.40;47.30
23377;DHT22;14353;46.070;13.222;2022-08-19T05:41:08;30.40;47.30
23377;DHT22;14353;46.070;13.222;2022-08-19T05:43:34;30.40;47.30
23377;DHT22;14353;46.070;13.222;2022-08-19T05:46:00;30.40;47.20
23377;DHT22;14353;46.070;13.222;2022-08-19T05:48:27;30.40;47.20
23377;DHT22;14353;46.070;13.222;2022-08-19T05:50:53;30.40;47.20
23377;DHT22;14353;46.070;13.222;2022-08-19T05:53:19;30.40;47.20
23377;DHT22;14353;46.070;13.222;2022-08-19T05:55:45;30.40;47.20
23377;DHT22;14353;46.070;13.222;2022-08-19T05:58:11;30.40;47.10
23377;DHT22;14353;46.070;13.222;2022-08-19T06:00:37;30.40;47.10
23377;DHT22;14353;46.070;13.222;2022-08-19T06:03:04;30.40;47.10
23377;DHT22;14353;46.070;13.222;2022-08-19T06:05:30;30.40;47.10
23377;DHT22;14353;46.070;13.222;2022-08-19T06:07:56;30.40;47.00
23377;DHT22;14353;46.070;13.222;2022-08-19T06:10:22;30.40;47.00
23377;DHT22;14353;46.070;13.222;2022-08-19T06:12:49;30.40;47.00
23377;DHT22;14353;46.070;13.222;2022-08-19T06:15:15;30.40;47.00
23377;DHT22;14353;46.070;13.222;2022-08-19T06:17:42;30.40;47.00
23377;DHT22;14353;46.070;13.222;2022-08-19T06:20:12;30.40;46.90
23377;DHT22;14353;46.070;13.222;2022-08-19T06:22:44;30.50;46.90
23377;DHT22;14353;46.070;13.222;2022-08-19T06:25:13;30.40;46.90
23377;DHT22;14353;46.070;13.222;2022-08-19T06:27:39;30.40;46.80
23377;DHT22;14353;46.070;13.222;2022-08-19T06:30:06;30.40;47.50
23377;DHT22;14353;46.070;13.222;2022-08-19T06:32:32;30.40;46.80
23377;DHT22;14353;46.070;13.222;2022-08-19T06:34:58;30.40;46.80
23377;DHT22;14353;46.070;13.222;2022-08-19T06:37:24;30.40;46.80
23377;DHT22;14353;46.070;13.222;2022-08-19T06:39:51;30.40;46.80
23377;DHT22;14353;46.070;13.222;2022-08-19T06:42:17;30.40;46.80
23377;DHT22;14353;46.070;13.222;2022-08-19T06:44:46;30.40;46.80
23377;DHT22;14353;46.070;13.222;2022-08-19T06:47:16;30.40;46.80
23377;DHT22;14353;46.070;13.222;2022-08-19T06:49:43;30.40;46.70
23377;DHT22;14353;46.070;13.222;2022-08-19T06:52:10;30.40;46.70
23377;DHT22;14353;46.070;13.222;2022-08-19T06:54:40;30.40;46.80
23377;DHT22;14353;46.070;13.222;2022-08-19T06:57:07;30.40;46.60
23377;DHT22;14353;46.070;13.222;2022-08-19T06:59:39;30.40;46.60
23377;DHT22;14353;46.070;13.222;2022-08-19T07:02:06;30.40;46.60
23377;DHT22;14353;46.070;13.222;2022-08-19T07:04:33;30.40;46.60
23377;DHT22;14353;46.070;13.222;2022-08-19T07:07:04;30.40;46.60
23377;DHT22;14353;46.070;13.222;2022-08-19T07:09:34;30.50;46.60
23377;DHT22;14353;46.070;13.222;2022-08-19T07:12:04;30.50;46.60
23377;DHT22;14353;46.070;13.222;2022-08-19T07:14:30;30.50;46.60
23377;DHT22;14353;46.070;13.222;2022-08-19T07:17:00;30.50;46.60
23377;DHT22;14353;46.070;13.222;2022-08-19T07:19:26;30.50;46.60
23377;DHT22;14353;46.070;13.222;2022-08-19T07:21:54;30.50;46.60
23377;DHT22;14353;46.070;13.222;2022-08-19T07:24:23;30.50;46.50
23377;DHT22;14353;46.070;13.222;2022-08-19T07:26:50;30.50;46.50
23377;DHT22;14353;46.070;13.222;2022-08-19T07:29:17;30.50;46.50
23377;DHT22;14353;46.070;13.222;2022-08-19T07:31:43;30.50;46.40
23377;DHT22;14353;46.070;13.222;2022-08-19T07:34:11;30.50;46.40
23377;DHT22;14353;46.070;13.222;2022-08-19T07:36:38;30.50;46.30
23377;DHT22;14353;46.070;13.222;2022-08-19T07:39:18;30.50;46.30
23377;DHT22;14353;46.070;13.222;2022-08-19T07:41:45;30.50;46.30
23377;DHT22;14353;46.070;13.222;2022-08-19T07:44:13;30.50;46.30
23377;DHT22;14353;46.070;13.222;2022-08-19T07:46:43;30.50;46.20
23377;DHT22;14353;46.070;13.222;2022-08-19T07:49:10;30.50;46.20
23377;DHT22;14353;46.070;13.222;2022-08-19T07:51:56;30.50;46.30
23377;DHT22;14353;46.070;13.222;2022-08-19T07:54:24;30.50;46.20
23377;DHT22;14353;46.070;13.222;2022-08-19T07:56:50;30.50;46.20
23377;DHT22;14353;46.070;13.222;2022-08-19T07:59:17;30.50;46.20
23377;DHT22;14353;46.070;13.222;2022-08-19T08:01:46;30.50;46.20
23377;DHT22;14353;46.070;13.222;2022-08-19T08:04:13;30.50;46.20
23377;DHT22;14353;46.070;13.222;2022-08-19T08:06:58;30.50;46.20
23377;DHT22;14353;46.070;13.222;2022-08-19T08:09:43;30.50;46.20
23377;DHT22;14353;46.070;13.222;2022-08-19T08:12:15;30.50;46.20
23377;DHT22;14353;46.070;13.222;2022-08-19T08:14:50;30.50;46.20
23377;DHT22;14353;46.070;13.222;2022-08-19T08:17:20;30.50;46.20
23377;DHT22;14353;46.070;13.222;2022-08-19T08:19:47;30.50;46.20
23377;DHT22;14353;46.070;13.222;2022-08-19T08:22:16;30.50;46.20
23377;DHT22;14353;46.070;13.222;2022-08-19T08:25:05;30.50;46.20
23377;DHT22;14353;46.070;13.222;2022-08-19T08:27:36;30.50;46.20
23377;DHT22;14353;46.070;13.222;2022-08-19T08:30:04;30.50;46.20
23377;DHT22;14353;46.070;13.222;2022-08-19T08:32:32;30.50;46.20
23377;DHT22;14353;46.070;13.222;2022-08-19T08:34:58;30.40;46.10
23377;DHT22;14353;46.070;13.222;2022-08-19T08:37:24;30.50;46.10
23377;DHT22;14353;46.070;13.222;2022-08-19T08:39:50;30.50;46.20
23377;DHT22;14353;46.070;13.222;2022-08-19T08:42:23;30.40;46.20
23377;DHT22;14353;46.070;13.222;2022-08-19T08:44:59;30.50;46.20
23377;DHT22;14353;46.070;13.222;2022-08-19T08:47:32;30.40;46.20
23377;DHT22;14353;46.070;13.222;2022-08-19T08:50:12;30.40;46.20
23377;DHT22;14353;46.070;13.222;2022-08-19T08:52:45;30.40;46.20
23377;DHT22;14353;46.070;13.222;2022-08-19T08:55:26;30.40;46.20
23377;DHT22;14353;46.070;13.222;2022-08-19T08:58:09;30.40;46.20
23377;DHT22;14353;46.070;13.222;2022-08-19T09:00:43;30.40;46.30
23377;DHT22;14353;46.070;13.222;2022-08-19T09:03:21;30.40;46.40
23377;DHT22;14353;46.070;13.222;2022-08-19T09:06:03;30.40;46.40
23377;DHT22;14353;46.070;13.222;2022-08-19T09:09:01;30.40;46.40
23377;DHT22;14353;46.070;13.222;2022-08-19T09:11:43;30.40;46.40
23377;DHT22;14353;46.070;13.222;2022-08-19T09:14:15;30.40;46.40
23377;DHT22;14353;46.070;13.222;2022-08-19T09:16:43;30.40;46.50
23377;DHT22;14353;46.070;13.222;2022-08-19T09:19:09;30.40;46.40
23377;DHT22;14353;46.070;13.222;2022-08-19T09:21:36;30.40;46.50
23377;DHT22;14353;46.070;13.222;2022-08-19T09:24:04;30.40;46.50
23377;DHT22;14353;46.070;13.222;2022-08-19T09:26:31;30.40;46.40
23377;DHT22;14353;46.070;13.222;2022-08-19T09:28:58;30.40;46.50
23377;DHT22;14353;46.070;13.222;2022-08-19T09:31:27;30.30;46.40
23377;DHT22;14353;46.070;13.222;2022-08-19T09:33:54;30.40;46.60
23377;DHT22;14353;46.070;13.222;2022-08-19T09:36:25;30.30;46.50
23377;DHT22;14353;46.070;13.222;2022-08-19T09:38:52;30.30;46.50
23377;DHT22;14353;46.070;13.222;2022-08-19T09:41:20;30.30;46.50
23377;DHT22;14353;46.070;13.222;2022-08-19T09:43:48;30.30;46.50
23377;DHT22;14353;46.070;13.222;2022-08-19T09:46:18;30.30;46.40
23377;DHT22;14353;46.070;13.222;2022-08-19T09:48:47;30.40;46.50
23377;DHT22;14353;46.070;13.222;2022-08-19T09:51:17;30.30;46.50
23377;DHT22;14353;46.070;13.222;2022-08-19T09:53:45;30.40;46.50
23377;DHT22;14353;46.070;13.222;2022-08-19T09:56:12;30.40;46.50
23377;DHT22;14353;46.070;13.222;2022-08-19T09:58:39;30.40;46.50
23377;DHT22;14353;46.070;13.222;2022-08-19T10:01:06;30.40;46.50
23377;DHT22;14353;46.070;13.222;2022-08-19T10:03:34;30.40;46.50
23377;DHT22;14353;46.070;13.222;2022-08-19T10:06:04;30.40;46.50
23377;DHT22;14353;46.070;13.222;2022-08-19T10:08:36;30.40;46.60
23377;DHT22;14353;46.070;13.222;2022-08-19T10:11:03;30.40;46.70
23377;DHT22;14353;46.070;13.222;2022-08-19T10:13:30;30.40;46.70
23377;DHT22;14353;46.070;13.222;2022-08-19T10:16:11;30.30;46.60
23377;DHT22;14353;46.070;13.222;2022-08-19T10:18:37;30.30;46.60
23377;DHT22;14353;46.070;13.222;2022-08-19T10:21:09;30.30;46.60
23377;DHT22;14353;46.070;13.222;2022-08-19T10:23:37;30.30;46.60
23377;DHT22;14353;46.070;13.222;2022-08-19T10:26:05;30.30;46.60
23377;DHT22;14353;46.070;13.222;2022-08-19T10:28:36;30.40;46.70
23377;DHT22;14353;46.070;13.222;2022-08-19T10:31:10;30.30;46.70
23377;DHT22;14353;46.070;13.222;2022-08-19T10:33:37;30.30;46.70
23377;DHT22;14353;46.070;13.222;2022-08-19T10:36:10;30.30;46.70
23377;DHT22;14353;46.070;13.222;2022-08-19T10:38:36;30.30;46.70
23377;DHT22;14353;46.070;13.222;2022-08-19T10:41:11;30.30;46.80
23377;DHT22;14353;46.070;13.222;2022-08-19T10:43:38;30.30;46.90
23377;DHT22;14353;46.070;13.222;2022-08-19T10:46:09;30.30;46.90
23377;DHT22;14353;46.070;13.222;2022-08-19T10:48:36;30.30;46.90
23377;DHT22;14353;46.070;13.222;2022-08-19T10:51:03;30.30;47.00
23377;DHT22;14353;46.070;13.222;2022-08-19T10:53:48;30.30;47.00
23377;DHT22;14353;46.070;13.222;2022-08-19T10:56:14;30.30;47.00
23377;DHT22;14353;46.070;13.222;2022-08-19T10:58:59;30.30;47.00
23377;DHT22;14353;46.070;13.222;2022-08-19T11:01:26;30.30;47.00
23377;DHT22;14353;46.070;13.222;2022-08-19T11:03:52;30.30;47.00
23377;DHT22;14353;46.070;13.222;2022-08-19T11:06:18;30.30;47.00
23377;DHT22;14353;46.070;13.222;2022-08-19T11:08:45;30.30;47.00
23377;DHT22;14353;46.070;13.222;2022-08-19T11:11:12;30.30;47.10
23377;DHT22;14353;46.070;13.222;2022-08-19T11:13:40;30.30;47.80
23377;DHT22;14353;46.070;13.222;2022-08-19T11:16:11;30.30;47.00
23377;DHT22;14353;46.070;13.222;2022-08-19T11:18:42;30.30;47.00
23377;DHT22;14353;46.070;13.222;2022-08-19T11:21:16;30.30;47.00
23377;DHT22;14353;46.070;13.222;2022-08-19T11:23:45;30.40;47.20
23377;DHT22;14353;46.070;13.222;2022-08-19T11:26:12;30.30;47.00
23377;DHT22;14353;46.070;13.222;2022-08-19T11:28:39;30.40;47.10
23377;DHT22;14353;46.070;13.222;2022-08-19T11:31:16;30.40;47.10
23377;DHT22;14353;46.070;13.222;2022-08-19T11:33:43;30.40;47.20
23377;DHT22;14353;46.070;13.222;2022-08-19T11:36:09;30.40;47.10
23377;DHT22;14353;46.070;13.222;2022-08-19T11:38:35;30.40;47.10
23377;DHT22;14353;46.070;13.222;2022-08-19T11:41:05;30.50;47.10
23377;DHT22;14353;46.070;13.222;2022-08-19T11:43:32;30.50;47.00
23377;DHT22;14353;46.070;13.222;2022-08-19T11:45:58;30.50;46.90
23377;DHT22;14353;46.070;13.222;2022-08-19T11:48:24;30.50;46.80
23377;DHT22;14353;46.070;13.222;2022-08-19T11:50:52;30.60;46.80
23377;DHT22;14353;46.070;13.222;2022-08-19T11:53:21;30.60;46.70
23377;DHT22;14353;46.070;13.222;2022-08-19T11:55:48;30.70;46.60
23377;DHT22;14353;46.070;13.222;2022-08-19T11:58:15;30.70;46.50
23377;DHT22;14353;46.070;13.222;2022-08-19T12:00:41;30.80;46.40
23377;DHT22;14353;46.070;13.222;2022-08-19T12:03:08;30.80;46.40
23377;DHT22;14353;46.070;13.222;2022-08-19T12:05:36;30.80;46.40
23377;DHT22;14353;46.070;13.222;2022-08-19T12:08:02;30.80;46.50
23377;DHT22;14353;46.070;13.222;2022-08-19T12:10:28;30.80;46.50
23377;DHT22;14353;46.070;13.222;2022-08-19T12:12:57;30.80;46.60
23377;DHT22;14353;46.070;13.222;2022-08-19T12:15:23;30.80;46.70
23377;DHT22;14353;46.070;13.222;2022-08-19T12:17:49;30.80;46.80
23377;DHT22;14353;46.070;13.222;2022-08-19T12:20:15;30.70;46.70
23377;DHT22;14353;46.070;13.222;2022-08-19T12:22:42;30.70;46.80
23377;DHT22;14353;46.070;13.222;2022-08-19T12:25:12;30.70;46.70
23377;DHT22;14353;46.070;13.222;2022-08-19T12:27:38;30.70;46.70
23377;DHT22;14353;46.070;13.222;2022-08-19T12:30:06;30.70;46.70
23377;DHT22;14353;46.070;13.222;2022-08-19T12:32:33;30.70;46.60
23377;DHT22;14353;46.070;13.222;2022-08-19T12:34:59;30.70;46.60
23377;DHT22;14353;46.070;13.222;2022-08-19T12:37:24;30.70;46.70
23377;DHT22;14353;46.070;13.222;2022-08-19T12:39:50;30.70;46.60
23377;DHT22;14353;46.070;13.222;2022-08-19T12:42:16;30.70;46.60
23377;DHT22;14353;46.070;13.222;2022-08-19T12:44:44;30.80;46.60
23377;DHT22;14353;46.070;13.222;2022-08-19T12:47:12;30.70;46.60
23377;DHT22;14353;46.070;13.222;2022-08-19T12:49:40;30.80;46.60
23377;DHT22;14353;46.070;13.222;2022-08-19T12:52:07;30.80;46.50
23377;DHT22;14353;46.070;13.222;2022-08-19T12:54:35;30.80;46.40
23377;DHT22;14353;46.070;13.222;2022-08-19T12:57:05;30.80;46.30
23377;DHT22;14353;46.070;13.222;2022-08-19T12:59:31;30.90;46.20
23377;DHT22;14353;46.070;13.222;2022-08-19T13:01:57;30.90;46.10
23377;DHT22;14353;46.070;13.222;2022-08-19T13:04:23;30.90;46.00
23377;DHT22;14353;46.070;13.222;2022-08-19T13:06:49;31.00;45.90
23377;DHT22;14353;46.070;13.222;2022-08-19T13:09:15;31.00;46.00
23377;DHT22;14353;46.070;13.222;2022-08-19T13:11:41;31.00;45.90
23377;DHT22;14353;46.070;13.222;2022-08-19T13:14:09;31.00;45.80
23377;DHT22;14353;46.070;13.222;2022-08-19T13:16:36;31.00;45.80
23377;DHT22;14353;46.070;13.222;2022-08-19T13:19:04;31.00;45.80
23377;DHT22;14353;46.070;13.222;2022-08-19T13:21:30;31.10;45.80
23377;DHT22;14353;46.070;13.222;2022-08-19T13:23:57;31.10;45.80
23377;DHT22;14353;46.070;13.222;2022-08-19T13:26:23;31.10;45.80
23377;DHT22;14353;46.070;13.222;2022-08-19T13:28:49;31.10;45.70
23377;DHT22;14353;46.070;13.222;2022-08-19T13:31:39;31.10;45.90
23377;DHT22;14353;46.070;13.222;2022-08-19T13:34:34;31.10;46.00
23377;DHT22;14353;46.070;13.222;2022-08-19T13:37:02;31.00;46.00
23377;DHT22;14353;46.070;13.222;2022-08-19T13:39:33;31.10;46.10
23377;DHT22;14353;46.070;13.222;2022-08-19T13:42:00;31.00;46.00
23377;DHT22;14353;46.070;13.222;2022-08-19T13:44:27;31.00;46.10
23377;DHT22;14353;46.070;13.222;2022-08-19T13:47:03;31.00;46.10
23377;DHT22;14353;46.070;13.222;2022-08-19T13:49:33;31.00;46.20
23377;DHT22;14353;46.070;13.222;2022-08-19T13:51:59;31.00;46.20
23377;DHT22;14353;46.070;13.222;2022-08-19T13:54:25;31.00;46.20
23377;DHT22;14353;46.070;13.222;2022-08-19T13:56:52;31.00;46.20
23377;DHT22;14353;46.070;13.222;2022-08-19T13:59:18;31.00;46.30
23377;DHT22;14353;46.070;13.222;2022-08-19T14:01:44;31.00;46.20
23377;DHT22;14353;46.070;13.222;2022-08-19T14:04:10;31.00;46.20
23377;DHT22;14353;46.070;13.222;2022-08-19T14:06:36;31.00;46.20
23377;DHT22;14353;46.070;13.222;2022-08-19T14:09:03;31.00;46.20
23377;DHT22;14353;46.070;13.222;2022-08-19T14:11:29;30.90;46.20
23377;DHT22;14353;46.070;13.222;2022-08-19T14:13:55;31.00;46.20
23377;DHT22;14353;46.070;13.222;2022-08-19T14:16:21;30.90;46.30
23377;DHT22;14353;46.070;13.222;2022-08-19T14:18:47;31.00;46.20
23377;DHT22;14353;46.070;13.222;2022-08-19T14:21:19;31.00;46.40
23377;DHT22;14353;46.070;13.222;2022-08-19T14:23:48;30.90;46.20
23377;DHT22;14353;46.070;13.222;2022-08-19T14:26:16;30.90;46.20
23377;DHT22;14353;46.070;13.222;2022-08-19T14:28:43;30.90;46.20
23377;DHT22;14353;46.070;13.222;2022-08-19T14:31:11;30.90;46.20
23377;DHT22;14353;46.070;13.222;2022-08-19T14:33:37;30.90;46.30
23377;DHT22;14353;46.070;13.222;2022-08-19T14:36:04;30.90;46.40
23377;DHT22;14353;46.070;13.222;2022-08-19T14:38:33;30.90;46.40
23377;DHT22;14353;46.070;13.222;2022-08-19T14:41:18;30.90;46.30
23377;DHT22;14353;46.070;13.222;2022-08-19T14:43:47;30.90;46.40
23377;DHT22;14353;46.070;13.222;2022-08-19T14:46:22;30.90;46.30
23377;DHT22;14353;46.070;13.222;2022-08-19T14:48:49;30.90;46.40
23377;DHT22;14353;46.070;13.222;2022-08-19T14:51:16;30.80;46.30
23377;DHT22;14353;46.070;13.222;2022-08-19T14:53:42;30.80;46.30
23377;DHT22;14353;46.070;13.222;2022-08-19T14:56:15;30.90;46.40
23377;DHT22;14353;46.070;13.222;2022-08-19T14:58:43;30.90;46.40
23377;DHT22;14353;46.070;13.222;2022-08-19T15:01:10;30.90;46.40
23377;DHT22;14353;46.070;13.222;2022-08-19T15:03:37;30.90;46.40
23377;DHT22;14353;46.070;13.222;2022-08-19T15:06:05;30.90;46.30
23377;DHT22;14353;46.070;13.222;2022-08-19T15:08:33;30.90;46.30
23377;DHT22;14353;46.070;13.222;2022-08-19T15:11:08;30.90;46.90
23377;DHT22;14353;46.070;13.222;2022-08-19T15:13:35;30.90;46.20
23377;DHT22;14353;46.070;13.222;2022-08-19T15:16:04;30.90;46.10
23377;DHT22;14353;46.070;13.222;2022-08-19T15:18:30;30.90;45.90
23377;DHT22;14353;46.070;13.222;2022-08-19T15:20:56;31.00;45.90
23377;DHT22;14353;46.070;13.222;2022-08-19T15:23:22;31.00;45.80
23377;DHT22;14353;46.070;13.222;2022-08-19T15:25:48;31.00;45.70